Time;durP1;ratioP1;P1;durP2;ratioP2;P2;SDS_P1;SDS_P2;PMS_P1;PMS_P2;Temp;Humidity;BMP_temperature;BMP_pressure;BME280_temperature;BME280_humidity;BME280_pressure;Samples;Min_cycle;Max_cycle;Signal;HPM_P1;HPM_P2
2023/06/03 00:00:08;;;;;;;1.70;1.60;;;10.70;99.90;;;;;;4999897;28;20511;-66
2023/06/03 00:02:40;;;;;;;2.97;1.50;;;10.70;99.90;;;;;;5000620;28;20576;-66
2023/06/03 00:05:09;;;;;;;1.77;1.40;;;10.60;99.90;;;;;;5001003;28;20962;-66
2023/06/03 00:07:37;;;;;;;2.13;1.50;;;10.60;99.90;;;;;;4995760;28;20479;-66
2023/06/03 00:10:06;;;;;;;2.33;1.67;;;10.60;99.90;;;;;;4996347;28;20559;-66
2023/06/03 00:12:34;;;;;;;1.90;1.20;;;10.60;99.90;;;;;;4997034;28;21116;-66
2023/06/03 00:15:03;;;;;;;1.50;1.40;;;10.50;99.90;;;;;;4999464;28;20955;-66
2023/06/03 00:17:31;;;;;;;1.40;1.30;;;10.50;99.90;;;;;;4993854;28;20549;-66
2023/06/03 00:20:06;;;;;;;1.53;1.43;;;10.50;99.90;;;;;;5000230;28;20464;-66
2023/06/03 00:22:37;;;;;;;2.20;1.70;;;10.40;99.90;;;;;;4998660;28;20892;-66
2023/06/03 00:25:07;;;;;;;1.70;1.60;;;10.40;99.90;;;;;;4999381;28;20480;-66
2023/06/03 00:27:35;;;;;;;3.03;1.90;;;10.30;99.90;;;;;;4993030;28;20536;-66
2023/06/03 00:30:04;;;;;;;2.13;2.00;;;10.30;99.90;;;;;;4997400;28;20472;-66
2023/06/03 00:32:32;;;;;;;1.77;1.63;;;10.20;99.90;;;;;;4992983;28;20578;-66
2023/06/03 00:35:00;;;;;;;2.40;1.40;;;10.10;99.90;;;;;;4997859;28;20591;-66
2023/06/03 00:37:28;;;;;;;1.50;1.40;;;10.10;99.90;;;;;;5012090;28;20507;-66
2023/06/03 00:39:58;;;;;;;1.80;1.33;;;10.20;99.90;;;;;;5015393;28;20560;-66
2023/06/03 00:42:26;;;;;;;1.70;1.30;;;10.10;99.90;;;;;;5014549;28;20501;-67
2023/06/03 00:44:54;;;;;;;1.43;1.33;;;10.00;99.90;;;;;;5004056;28;20500;-66
2023/06/03 00:47:22;;;;;;;1.70;1.60;;;10.00;99.90;;;;;;5001317;28;20472;-66
2023/06/03 00:49:50;;;;;;;1.73;1.40;;;9.90;99.90;;;;;;4998679;28;20504;-66
2023/06/03 00:52:20;;;;;;;1.30;1.20;;;9.90;99.90;;;;;;4999125;28;20496;-66
2023/06/03 00:54:49;;;;;;;1.80;1.70;;;9.90;99.90;;;;;;4999258;28;20560;-66
2023/06/03 00:57:20;;;;;;;2.30;1.60;;;9.80;99.90;;;;;;5000156;28;20476;-66
2023/06/03 00:59:48;;;;;;;3.00;1.83;;;9.80;99.90;;;;;;4999891;28;20550;-66
2023/06/03 01:02:17;;;;;;;1.60;1.50;;;9.80;99.90;;;;;;4999862;28;20923;-66
2023/06/03 01:04:48;;;;;;;2.03;1.80;;;9.80;99.90;;;;;;4999929;28;20488;-66
2023/06/03 01:07:21;;;;;;;2.17;1.37;;;9.70;99.90;;;;;;4998971;28;20499;-66
2023/06/03 01:10:01;;;;;;;2.87;1.47;;;9.70;99.90;;;;;;4998183;28;20503;-66
2023/06/03 01:12:35;;;;;;;2.93;1.37;;;9.60;99.90;;;;;;4997029;28;20591;-66
2023/06/03 01:15:07;;;;;;;1.70;1.60;;;9.60;99.90;;;;;;4996502;28;20512;-66
2023/06/03 01:17:39;;;;;;;1.70;1.60;;;9.50;99.90;;;;;;4996403;28;20519;-66
2023/06/03 01:20:10;;;;;;;1.83;1.63;;;9.50;99.90;;;;;;4998947;28;20522;-66
2023/06/03 01:22:41;;;;;;;2.23;1.70;;;9.50;99.90;;;;;;4997249;28;20488;-66
2023/06/03 01:25:12;;;;;;;3.13;1.73;;;9.50;99.90;;;;;;4998793;28;20487;-66
2023/06/03 01:27:44;;;;;;;1.80;1.70;;;9.40;99.90;;;;;;5001030;28;20480;-66
2023/06/03 01:30:14;;;;;;;1.77;1.63;;;9.40;99.90;;;;;;4997584;28;20475;-66
2023/06/03 01:32:44;;;;;;;2.23;1.70;;;9.40;99.90;;;;;;4998884;28;21001;-66
2023/06/03 01:35:13;;;;;;;2.80;1.80;;;9.30;99.90;;;;;;4997827;28;20511;-66
2023/06/03 01:37:42;;;;;;;1.80;1.70;;;9.30;99.90;;;;;;4999982;28;20472;-65
2023/06/03 01:40:12;;;;;;;1.80;1.53;;;9.30;99.90;;;;;;4998450;28;20490;-66
2023/06/03 01:42:40;;;;;;;2.43;1.93;;;9.30;99.90;;;;;;4996738;28;20603;-66
2023/06/03 01:45:08;;;;;;;2.00;1.80;;;9.30;99.90;;;;;;4994384;28;20503;-66
2023/06/03 01:47:36;;;;;;;1.93;1.73;;;9.30;99.90;;;;;;4997803;28;21072;-66
2023/06/03 01:50:05;;;;;;;2.20;2.00;;;9.30;99.90;;;;;;4997822;28;20473;-66
2023/06/03 01:52:33;;;;;;;2.50;2.10;;;9.20;99.90;;;;;;4993174;28;20488;-66
2023/06/03 01:55:01;;;;;;;2.03;1.60;;;9.10;99.90;;;;;;4998170;28;20473;-65
2023/06/03 01:57:30;;;;;;;2.40;1.70;;;9.10;99.90;;;;;;4998338;28;20508;-66
2023/06/03 01:59:58;;;;;;;1.67;1.43;;;9.10;99.90;;;;;;4997113;28;20506;-66
2023/06/03 02:02:27;;;;;;;1.57;1.40;;;9.10;99.90;;;;;;4996407;28;20515;-66
2023/06/03 02:04:56;;;;;;;2.20;2.00;;;9.00;99.90;;;;;;4994692;28;20468;-66
2023/06/03 02:07:25;;;;;;;1.53;1.43;;;9.00;99.90;;;;;;4998453;28;20488;-66
2023/06/03 02:09:54;;;;;;;2.17;1.70;;;9.00;99.90;;;;;;4997305;28;21336;-66
2023/06/03 02:12:23;;;;;;;2.13;1.93;;;9.00;99.90;;;;;;4996521;28;20512;-65
2023/06/03 02:14:56;;;;;;;2.27;1.93;;;8.90;99.90;;;;;;4994566;28;20615;-66
2023/06/03 02:17:26;;;;;;;2.80;2.10;;;8.90;99.90;;;;;;4999709;28;20472;-66
2023/06/03 02:19:54;;;;;;;2.07;1.87;;;8.90;99.90;;;;;;4998789;28;20566;-66
2023/06/03 02:22:23;;;;;;;2.50;2.07;;;8.80;99.90;;;;;;4998632;28;20488;-66
2023/06/03 02:24:51;;;;;;;2.10;2.00;;;8.80;99.90;;;;;;4997995;28;20473;-67
2023/06/03 02:27:20;;;;;;;2.40;2.20;;;8.80;99.90;;;;;;4996951;28;20985;-66
2023/06/03 02:29:50;;;;;;;2.30;2.10;;;8.70;99.90;;;;;;4991400;28;20518;-66
2023/06/03 02:32:22;;;;;;;2.73;2.53;;;8.70;99.90;;;;;;4994410;28;20496;-66
2023/06/03 02:34:50;;;;;;;2.93;2.00;;;8.70;99.90;;;;;;4997628;28;20471;-66
2023/06/03 02:37:19;;;;;;;2.30;2.13;;;8.60;99.90;;;;;;4993939;28;20501;-66
2023/06/03 02:39:47;;;;;;;2.70;2.50;;;8.60;99.90;;;;;;4993458;28;20497;-65
2023/06/03 02:42:15;;;;;;;3.47;2.40;;;8.60;99.90;;;;;;4997771;28;20492;-65
2023/06/03 02:44:44;;;;;;;2.80;2.60;;;8.50;99.90;;;;;;4996843;28;20477;-66
2023/06/03 02:47:12;;;;;;;2.90;2.70;;;8.50;99.90;;;;;;4995944;28;20472;-66
2023/06/03 02:49:41;;;;;;;4.10;2.60;;;8.50;99.90;;;;;;4993530;28;20981;-66
2023/06/03 02:52:09;;;;;;;3.50;2.47;;;8.50;99.90;;;;;;4996669;28;20485;-66
2023/06/03 02:54:37;;;;;;;2.77;2.57;;;8.50;99.90;;;;;;5010674;28;20544;-66
2023/06/03 02:57:07;;;;;;;2.83;2.63;;;8.50;99.90;;;;;;5007631;28;20499;-66
2023/06/03 02:59:35;;;;;;;3.33;3.13;;;8.40;99.90;;;;;;5013036;28;20999;-66
2023/06/03 03:02:03;;;;;;;2.87;2.67;;;8.40;99.90;;;;;;4997505;28;20516;-66
2023/06/03 03:04:36;;;;;;;3.00;2.80;;;8.40;99.90;;;;;;4996295;28;20511;-66
2023/06/03 03:07:07;;;;;;;3.27;3.07;;;8.30;99.90;;;;;;4995920;28;20526;-66
2023/06/03 03:09:35;;;;;;;2.93;2.73;;;8.30;99.90;;;;;;5000078;28;20468;-66
2023/06/03 03:12:03;;;;;;;2.80;2.60;;;8.20;99.90;;;;;;4998524;28;20485;-65
2023/06/03 03:14:33;;;;;;;2.63;2.40;;;8.30;99.90;;;;;;4998678;28;20600;-66
2023/06/03 03:17:02;;;;;;;2.77;2.57;;;8.20;99.90;;;;;;4996847;28;20982;-66
2023/06/03 03:19:30;;;;;;;3.23;2.70;;;8.20;99.90;;;;;;4997079;28;20496;-66
2023/06/03 03:21:58;;;;;;;2.87;2.47;;;8.30;99.90;;;;;;4997499;28;20576;-66
2023/06/03 03:24:30;;;;;;;3.80;3.03;;;8.30;99.90;;;;;;4993618;28;21123;-66
2023/06/03 03:26:58;;;;;;;2.90;2.70;;;8.30;99.90;;;;;;5001936;28;21179;-65
2023/06/03 03:29:26;;;;;;;3.50;3.20;;;8.30;99.90;;;;;;5000684;28;20500;-65
2023/06/03 03:31:59;;;;;;;2.87;2.63;;;8.30;99.90;;;;;;5000761;28;21283;-66
2023/06/03 03:34:30;;;;;;;3.90;3.23;;;8.30;99.90;;;;;;4996477;28;20479;-66
2023/06/03 03:36:58;;;;;;;3.43;3.13;;;8.30;99.90;;;;;;4999855;28;21299;-66
2023/06/03 03:39:28;;;;;;;3.00;2.80;;;8.30;99.90;;;;;;4996814;28;20841;-66
2023/06/03 03:41:56;;;;;;;3.20;2.90;;;8.40;99.90;;;;;;4993808;28;20502;-66
2023/06/03 03:44:28;;;;;;;3.10;2.90;;;8.40;99.90;;;;;;4994749;28;20464;-66
2023/06/03 03:47:01;;;;;;;2.67;2.47;;;8.30;99.90;;;;;;4992425;28;21040;-66
2023/06/03 03:49:31;;;;;;;2.70;2.47;;;8.30;99.90;;;;;;4994501;28;20899;-66
2023/06/03 03:52:04;;;;;;;2.70;2.50;;;8.40;99.90;;;;;;4996964;28;20488;-66
2023/06/03 03:54:35;;;;;;;2.70;2.50;;;8.40;99.90;;;;;;4993047;28;20485;-66
2023/06/03 03:57:10;;;;;;;3.00;2.70;;;8.40;99.90;;;;;;4993895;28;20476;-66
2023/06/03 03:59:38;;;;;;;5.00;2.10;;;8.40;99.90;;;;;;4995036;28;20471;-66
2023/06/03 04:02:07;;;;;;;2.30;2.10;;;8.30;99.90;;;;;;4993451;28;20563;-66
2023/06/03 04:04:43;;;;;;;2.70;2.50;;;8.40;99.90;;;;;;4999153;28;20476;-66
2023/06/03 04:07:16;;;;;;;2.70;2.50;;;8.50;99.90;;;;;;4996616;28;20539;-66
2023/06/03 04:09:46;;;;;;;2.63;2.20;;;8.50;99.90;;;;;;4999881;28;20479;-66
2023/06/03 04:12:23;;;;;;;2.13;2.03;;;8.50;99.90;;;;;;4998868;28;20520;-66
2023/06/03 04:14:51;;;;;;;2.30;2.10;;;8.60;99.90;;;;;;4995863;28;20503;-66
2023/06/03 04:17:21;;;;;;;2.80;2.60;;;8.60;99.90;;;;;;4994774;28;20476;-66
2023/06/03 04:19:52;;;;;;;2.13;1.97;;;8.70;99.90;;;;;;4998045;28;20473;-66
2023/06/03 04:22:21;;;;;;;2.50;2.30;;;8.70;99.90;;;;;;4995381;28;20499;-66
2023/06/03 04:24:56;;;;;;;2.23;2.03;;;8.70;99.90;;;;;;4992274;28;20497;-65
2023/06/03 04:27:25;;;;;;;2.77;2.20;;;8.80;99.90;;;;;;4996867;28;20468;-66
2023/06/03 04:29:53;;;;;;;2.50;2.30;;;8.80;99.90;;;;;;4994656;28;20918;-66
2023/06/03 04:32:21;;;;;;;3.10;2.40;;;8.90;99.90;;;;;;4996994;28;20530;-66
2023/06/03 04:34:51;;;;;;;3.37;2.40;;;8.90;99.90;;;;;;4995593;28;20488;-66
2023/06/03 04:37:20;;;;;;;2.57;2.37;;;9.00;99.90;;;;;;4994617;28;20469;-66
2023/06/03 04:39:49;;;;;;;2.10;2.00;;;9.00;99.90;;;;;;4998902;28;20855;-66
2023/06/03 04:42:18;;;;;;;2.87;2.40;;;9.10;99.90;;;;;;4994437;28;21486;-66
2023/06/03 04:44:48;;;;;;;2.30;2.10;;;9.10;99.90;;;;;;4992724;28;20551;-66
2023/06/03 04:47:17;;;;;;;3.20;2.13;;;9.20;99.90;;;;;;4993713;28;20531;-65
2023/06/03 04:49:47;;;;;;;2.30;2.10;;;9.20;99.90;;;;;;4992844;28;20514;-66
2023/06/03 04:52:15;;;;;;;2.23;2.07;;;9.30;99.90;;;;;;4992658;28;20501;-66
2023/06/03 04:54:43;;;;;;;3.47;2.47;;;9.30;99.90;;;;;;4995491;28;20476;-66
2023/06/03 04:57:11;;;;;;;2.30;2.10;;;9.40;99.90;;;;;;4990135;28;20492;-66
2023/06/03 04:59:43;;;;;;;2.93;2.13;;;9.40;99.90;;;;;;4992940;28;20496;-66
2023/06/03 05:02:13;;;;;;;4.00;2.20;;;9.50;99.90;;;;;;4994239;28;20496;-66
2023/06/03 05:04:42;;;;;;;3.00;2.13;;;9.60;99.90;;;;;;5012353;28;20472;-66
2023/06/03 05:07:11;;;;;;;2.00;1.90;;;9.70;99.90;;;;;;5003530;28;21086;-66
2023/06/03 05:09:39;;;;;;;3.07;2.70;;;9.70;99.90;;;;;;5005174;28;20470;-66
2023/06/03 05:12:09;;;;;;;2.20;2.00;;;9.80;99.90;;;;;;4998992;28;20489;-66
2023/06/03 05:14:37;;;;;;;2.17;1.90;;;9.90;99.90;;;;;;4996659;28;20827;-66
2023/06/03 05:17:06;;;;;;;2.53;2.10;;;10.00;99.90;;;;;;4994175;28;21070;-66
2023/06/03 05:19:37;;;;;;;2.20;2.00;;;10.10;99.90;;;;;;4993856;28;20618;-66
2023/06/03 05:22:05;;;;;;;2.20;2.00;;;10.20;99.90;;;;;;4990969;28;20577;-66
2023/06/03 05:24:33;;;;;;;2.13;1.97;;;10.20;99.90;;;;;;4994853;28;20496;-66
2023/06/03 05:27:03;;;;;;;2.07;1.70;;;10.30;99.90;;;;;;4991237;28;20556;-66
2023/06/03 05:29:31;;;;;;;2.03;1.83;;;10.40;99.90;;;;;;4990359;28;20548;-65
2023/06/03 05:31:59;;;;;;;1.93;1.70;;;10.50;99.90;;;;;;4993906;28;21021;-66
2023/06/03 05:34:28;;;;;;;2.27;1.80;;;10.60;99.90;;;;;;4997662;28;20563;-66
2023/06/03 05:36:56;;;;;;;2.20;1.50;;;10.60;99.90;;;;;;4986984;28;20618;-66
2023/06/03 05:39:24;;;;;;;1.90;1.70;;;10.70;99.90;;;;;;4993074;28;20555;-66
2023/06/03 05:41:52;;;;;;;2.13;1.70;;;10.80;99.90;;;;;;4999439;28;20580;-66
2023/06/03 05:44:20;;;;;;;2.07;1.50;;;10.90;99.90;;;;;;4998928;28;20548;-66
2023/06/03 05:46:48;;;;;;;2.60;1.50;;;11.00;99.90;;;;;;4996536;28;20572;-66
2023/06/03 05:49:17;;;;;;;1.67;1.43;;;11.10;99.90;;;;;;4994170;28;20487;-66
2023/06/03 05:51:46;;;;;;;4.20;1.60;;;11.20;99.90;;;;;;4999547;28;20937;-66
2023/06/03 05:54:14;;;;;;;2.00;1.70;;;11.30;99.90;;;;;;4996841;28;20479;-66
2023/06/03 05:56:42;;;;;;;1.90;1.80;;;11.50;99.90;;;;;;4993928;28;20465;-67
2023/06/03 05:59:10;;;;;;;1.67;1.57;;;11.60;99.90;;;;;;4991983;28;20487;-66
2023/06/03 06:01:38;;;;;;;7.63;2.47;;;11.60;99.90;;;;;;4988141;28;20567;-66
2023/06/03 06:04:06;;;;;;;4.80;2.13;;;11.70;99.90;;;;;;4997700;28;20508;-66
2023/06/03 06:06:35;;;;;;;2.10;1.90;;;11.70;99.90;;;;;;4998329;28;20471;-66
2023/06/03 06:09:05;;;;;;;2.40;1.50;;;11.70;99.90;;;;;;5005744;28;20477;-66
2023/06/03 06:11:34;;;;;;;4.43;2.20;;;11.80;99.90;;;;;;4997332;28;20508;-66
2023/06/03 06:14:02;;;;;;;2.50;2.13;;;11.90;99.90;;;;;;4998046;28;20555;-66
2023/06/03 06:16:30;;;;;;;2.50;1.87;;;12.00;99.90;;;;;;4996216;28;20499;-65
2023/06/03 06:18:58;;;;;;;4.33;1.90;;;12.10;99.90;;;;;;4999122;28;20469;-66
2023/06/03 06:21:26;;;;;;;1.57;1.47;;;12.20;99.90;;;;;;4993042;28;20516;-67
2023/06/03 06:23:54;;;;;;;2.00;1.80;;;12.20;99.90;;;;;;4995639;28;20468;-66
2023/06/03 06:26:23;;;;;;;2.27;1.43;;;12.30;99.90;;;;;;4996419;28;20476;-66
2023/06/03 06:28:51;;;;;;;4.00;1.60;;;12.40;99.90;;;;;;4991481;28;20843;-67
2023/06/03 06:31:22;;;;;;;1.60;1.50;;;12.50;99.90;;;;;;4990791;28;20543;-66
2023/06/03 06:33:51;;;;;;;3.00;1.73;;;12.50;99.90;;;;;;4992766;28;20496;-66
2023/06/03 06:36:30;;;;;;;2.37;1.43;;;12.60;99.90;;;;;;4991864;28;20820;-66
2023/06/03 06:38:58;;;;;;;1.90;1.67;;;12.70;99.90;;;;;;4988280;28;20913;-66
2023/06/03 06:41:29;;;;;;;3.90;1.33;;;12.80;99.90;;;;;;4984269;28;20915;-67
2023/06/03 06:43:57;;;;;;;1.70;1.60;;;12.90;99.90;;;;;;4992623;28;21073;-66
2023/06/03 06:46:25;;;;;;;2.83;1.77;;;12.90;99.90;;;;;;4999510;28;20933;-66
2023/06/03 06:48:53;;;;;;;1.20;1.10;;;13.00;99.90;;;;;;4991762;28;20971;-66
2023/06/03 06:51:21;;;;;;;2.13;1.53;;;13.10;99.90;;;;;;4994228;28;20489;-66
2023/06/03 06:53:51;;;;;;;1.40;1.30;;;13.10;99.90;;;;;;5000719;28;21008;-66
2023/06/03 06:56:21;;;;;;;2.03;1.50;;;13.20;99.90;;;;;;4997854;28;26238;-66
2023/06/03 06:58:50;;;;;;;3.23;1.53;;;13.20;99.90;;;;;;4996012;28;20571;-66
2023/06/03 07:01:18;;;;;;;2.17;1.40;;;13.30;99.90;;;;;;4993004;28;20570;-66
2023/06/03 07:03:46;;;;;;;1.60;1.23;;;13.40;99.90;;;;;;4996144;28;20515;-66
2023/06/03 07:06:14;;;;;;;1.40;1.20;;;13.40;99.90;;;;;;4991505;28;21195;-64
2023/06/03 07:08:42;;;;;;;2.23;1.27;;;13.50;99.90;;;;;;4991610;28;20992;-65
2023/06/03 07:11:10;;;;;;;1.50;1.30;;;13.70;99.90;;;;;;5002148;28;20607;-64
2023/06/03 07:13:38;;;;;;;2.30;1.50;;;13.80;99.90;;;;;;5002297;28;20493;-64
2023/06/03 07:16:09;;;;;;;2.33;1.37;;;13.90;99.90;;;;;;5002573;28;20464;-65
2023/06/03 07:18:37;;;;;;;1.13;1.03;;;14.00;99.90;;;;;;5005487;28;20500;-65
2023/06/03 07:21:05;;;;;;;1.60;1.20;;;14.00;99.90;;;;;;5004198;28;20479;-64
2023/06/03 07:23:34;;;;;;;3.13;1.17;;;14.10;99.90;;;;;;5010689;28;20492;-65
2023/06/03 07:26:04;;;;;;;1.53;1.20;;;14.10;99.90;;;;;;5009088;28;20468;-68
2023/06/03 07:28:37;;;;;;;2.60;1.40;;;14.10;99.90;;;;;;5010695;28;20473;-67
2023/06/03 07:31:09;;;;;;;0.80;0.80;;;14.20;99.90;;;;;;5007893;28;20469;-66
2023/06/03 07:33:49;;;;;;;2.50;1.43;;;14.30;99.90;;;;;;5001881;28;20502;-65
2023/06/03 07:36:19;;;;;;;1.33;1.10;;;14.30;99.90;;;;;;4994666;28;20474;-64
2023/06/03 07:39:06;;;;;;;1.50;1.40;;;14.40;99.90;;;;;;5004934;28;21343;-65
2023/06/03 07:41:39;;;;;;;1.30;1.10;;;14.50;99.90;;;;;;5000173;28;20487;-64
2023/06/03 07:44:10;;;;;;;1.20;0.90;;;14.50;99.90;;;;;;4993765;28;21109;-64
2023/06/03 07:46:45;;;;;;;1.57;1.47;;;14.60;99.90;;;;;;4995413;28;20535;-66
2023/06/03 07:49:15;;;;;;;2.33;1.20;;;14.60;99.90;;;;;;4997391;28;20563;-66
2023/06/03 07:51:48;;;;;;;1.30;1.20;;;14.70;99.90;;;;;;4999095;28;20507;-66
2023/06/03 07:54:17;;;;;;;1.37;1.20;;;14.70;99.90;;;;;;4997933;28;20478;-66
2023/06/03 07:56:45;;;;;;;1.87;1.10;;;14.80;99.90;;;;;;4988908;28;20579;-68
2023/06/03 07:59:15;;;;;;;2.13;1.13;;;14.80;99.90;;;;;;4992331;28;20477;-65
2023/06/03 08:01:44;;;;;;;2.03;1.10;;;14.90;99.90;;;;;;4995117;28;21157;-65
2023/06/03 08:04:26;;;;;;;2.67;1.40;;;15.00;99.90;;;;;;4997490;28;20812;-66
2023/06/03 08:06:55;;;;;;;2.13;1.27;;;15.10;99.90;;;;;;4989306;28;20472;-66
2023/06/03 08:09:28;;;;;;;1.87;1.17;;;15.10;99.90;;;;;;4997130;28;20472;-68
2023/06/03 08:11:56;;;;;;;1.33;1.10;;;15.10;99.90;;;;;;4985652;28;20615;-67
2023/06/03 08:14:25;;;;;;;1.37;1.13;;;15.20;99.90;;;;;;4986546;28;20518;-68
2023/06/03 08:16:57;;;;;;;1.50;1.40;;;15.30;99.90;;;;;;4987753;28;21374;-67
2023/06/03 08:19:25;;;;;;;2.60;1.07;;;15.40;99.90;;;;;;4987936;28;21381;-67
2023/06/03 08:21:53;;;;;;;1.17;1.07;;;15.50;99.90;;;;;;4989962;28;20498;-66
2023/06/03 08:24:21;;;;;;;0.97;0.93;;;15.60;99.90;;;;;;4991714;28;20831;-67
2023/06/03 08:26:49;;;;;;;2.90;1.20;;;15.70;99.90;;;;;;4991234;28;20993;-67
2023/06/03 08:29:17;;;;;;;1.27;1.17;;;15.80;99.90;;;;;;4984057;28;20484;-67
2023/06/03 08:31:45;;;;;;;1.17;1.03;;;15.90;97.10;;;;;;4991002;28;21016;-68
2023/06/03 08:34:15;;;;;;;1.50;1.17;;;15.90;97.90;;;;;;4993612;28;20495;-68
2023/06/03 08:36:42;;;;;;;1.60;1.30;;;15.90;99.80;;;;;;4999810;28;20476;-67
2023/06/03 08:39:11;;;;;;;3.53;1.30;;;15.90;99.90;;;;;;4992515;28;21048;-66
2023/06/03 08:41:41;;;;;;;1.03;0.93;;;16.00;95.80;;;;;;4995511;28;20579;-66
2023/06/03 08:44:15;;;;;;;1.50;1.30;;;16.10;97.20;;;;;;4998040;28;20499;-70
2023/06/03 08:46:55;;;;;;;1.57;1.13;;;16.10;93.90;;;;;;4999746;28;20472;-65
2023/06/03 08:49:41;;;;;;;2.13;1.40;;;16.20;99.90;;;;;;5001091;28;20471;-71
2023/06/03 08:52:10;;;;;;;2.80;1.40;;;16.30;98.90;;;;;;4999153;28;20596;-70
2023/06/03 08:54:40;;;;;;;1.00;0.97;;;16.50;98.80;;;;;;4995391;28;21033;-69
2023/06/03 08:57:18;;;;;;;3.73;1.70;;;16.60;99.10;;;;;;4995840;28;21069;-68
2023/06/03 08:59:51;;;;;;;2.30;1.40;;;16.70;94.60;;;;;;4993300;28;21091;-69
2023/06/03 09:02:19;;;;;;;1.50;1.40;;;16.60;95.30;;;;;;4993442;28;20492;-69
2023/06/03 09:04:50;;;;;;;2.20;1.47;;;16.50;92.70;;;;;;4998068;28;20479;-67
2023/06/03 09:07:20;;;;;;;1.37;1.10;;;16.50;92.10;;;;;;4998560;28;20560;-67
2023/06/03 09:09:51;;;;;;;1.23;1.03;;;16.50;92.60;;;;;;4997117;28;20499;-70
2023/06/03 09:12:20;;;;;;;1.33;1.00;;;16.50;99.00;;;;;;4995346;28;20528;-69
2023/06/03 09:14:49;;;;;;;1.00;0.90;;;16.70;98.20;;;;;;4978773;28;20985;-66
2023/06/03 09:17:17;;;;;;;1.27;0.93;;;16.80;94.30;;;;;;4979985;28;20486;-68
2023/06/03 09:19:46;;;;;;;1.20;1.10;;;16.90;94.10;;;;;;4990430;28;20613;-68
2023/06/03 09:22:16;;;;;;;1.57;1.00;;;17.10;91.90;;;;;;4988021;28;20917;-67
2023/06/03 09:24:45;;;;;;;3.77;1.23;;;17.20;87.90;;;;;;4997379;28;20587;-66
2023/06/03 09:27:13;;;;;;;2.20;0.90;;;17.40;91.60;;;;;;5003447;28;20748;-66
2023/06/03 09:29:42;;;;;;;1.50;1.17;;;17.40;91.60;;;;;;4992579;28;20559;-65
2023/06/03 09:32:10;;;;;;;1.80;1.10;;;17.40;90.30;;;;;;4993501;28;20496;-65
2023/06/03 09:34:39;;;;;;;1.30;1.20;;;17.50;90.30;;;;;;4984778;28;20482;-65
2023/06/03 09:37:10;;;;;;;1.30;1.00;;;17.60;89.10;;;;;;4988051;28;20559;-65
2023/06/03 09:39:41;;;;;;;0.83;0.83;;;17.70;94.10;;;;;;4993816;28;20477;-65
2023/06/03 09:42:10;;;;;;;1.30;1.20;;;17.80;87.20;;;;;;4990239;28;20500;-65
2023/06/03 09:44:40;;;;;;;1.27;1.17;;;17.90;86.20;;;;;;4989881;28;20491;-65
2023/06/03 09:47:08;;;;;;;1.40;1.23;;;17.90;73.00;;;;;;4981319;28;20486;-66
2023/06/03 09:49:37;;;;;;;1.43;0.93;;;17.90;83.80;;;;;;4993880;28;20472;-65
2023/06/03 09:52:11;;;;;;;1.13;0.93;;;17.90;88.30;;;;;;4993073;28;20498;-67
2023/06/03 09:54:41;;;;;;;2.93;1.17;;;18.00;83.90;;;;;;4991554;28;20731;-67
2023/06/03 09:57:11;;;;;;;2.67;1.57;;;18.10;72.40;;;;;;4992808;28;20459;-68
2023/06/03 09:59:42;;;;;;;1.90;1.10;;;18.20;87.10;;;;;;4992164;28;20483;-66
2023/06/03 10:02:13;;;;;;;1.20;1.10;;;18.20;67.50;;;;;;4986772;28;20502;-66
2023/06/03 10:04:44;;;;;;;2.53;1.40;;;18.30;70.80;;;;;;4988666;28;20551;-66
2023/06/03 10:07:13;;;;;;;1.70;1.30;;;18.40;69.00;;;;;;5014027;28;20502;-66
2023/06/03 10:09:44;;;;;;;1.20;1.10;;;18.40;71.30;;;;;;4996545;28;20479;-66
2023/06/03 10:12:13;;;;;;;1.50;1.20;;;18.50;72.80;;;;;;4986318;28;20877;-65
2023/06/03 10:14:52;;;;;;;1.10;1.00;;;18.60;73.30;;;;;;4987250;28;20843;-65
2023/06/03 10:17:20;;;;;;;1.63;1.10;;;18.60;80.70;;;;;;4992012;28;20500;-65
2023/06/03 10:19:49;;;;;;;3.00;1.20;;;18.80;66.20;;;;;;4991666;28;20529;-65
2023/06/03 10:22:19;;;;;;;2.57;1.30;;;18.90;65.70;;;;;;4988841;28;20503;-66
2023/06/03 10:24:49;;;;;;;2.40;1.10;;;18.90;61.50;;;;;;4995072;28;20585;-68
2023/06/03 10:27:18;;;;;;;1.30;1.20;;;19.00;56.90;;;;;;4995619;28;20473;-65
2023/06/03 10:29:49;;;;;;;1.37;1.20;;;19.00;60.50;;;;;;4988415;28;20568;-65
2023/06/03 10:32:17;;;;;;;1.80;1.03;;;19.00;63.70;;;;;;4988359;28;20497;-65
2023/06/03 10:34:47;;;;;;;1.67;1.00;;;19.00;65.00;;;;;;4988728;28;21076;-65
2023/06/03 10:37:16;;;;;;;1.47;1.30;;;19.10;62.40;;;;;;4988524;28;20896;-66
2023/06/03 10:39:45;;;;;;;3.10;1.00;;;19.10;61.10;;;;;;4998803;28;20486;-65
2023/06/03 10:42:19;;;;;;;1.63;1.13;;;19.20;57.10;;;;;;4992829;28;20575;-66
2023/06/03 10:44:47;;;;;;;1.30;0.90;;;19.20;60.50;;;;;;4997632;28;22583;-66
2023/06/03 10:47:26;;;;;;;4.27;1.33;;;19.40;57.10;;;;;;5000069;28;20468;-65
2023/06/03 10:49:59;;;;;;;1.87;1.00;;;19.40;59.20;;;;;;4999600;28;20522;-66
2023/06/03 10:52:57;;;;;;;1.37;1.27;;;19.50;63.30;;;;;;4997977;28;20502;-66
2023/06/03 10:55:36;;;;;;;1.77;1.07;;;19.60;63.70;;;;;;4999523;28;20515;-66
2023/06/03 10:58:13;;;;;;;2.20;1.40;;;19.80;60.10;;;;;;5002204;28;20472;-66
2023/06/03 11:00:54;;;;;;;1.33;1.23;;;19.90;54.50;;;;;;4998976;28;20476;-68
2023/06/03 11:03:23;;;;;;;1.50;1.40;;;19.90;56.40;;;;;;5002787;28;20582;-68
2023/06/03 11:05:51;;;;;;;3.23;1.43;;;19.90;55.30;;;;;;5002318;28;20476;-67
2023/06/03 11:08:52;;;;;;;1.80;1.10;;;20.00;57.00;;;;;;4999843;28;20476;-67
2023/06/03 11:11:58;;;;;;;2.30;1.10;;;20.20;57.50;;;;;;4986985;28;20487;-67
2023/06/03 11:14:53;;;;;;;0.90;0.90;;;20.30;51.80;;;;;;4990484;28;20468;-67
2023/06/03 11:17:23;;;;;;;3.13;2.00;;;20.30;57.20;;;;;;4991815;28;20529;-65
2023/06/03 11:19:54;;;;;;;2.10;1.30;;;20.20;58.90;;;;;;4988100;28;21005;-66
2023/06/03 11:22:39;;;;;;;1.10;1.00;;;20.20;48.50;;;;;;4972322;28;20586;-66
2023/06/03 11:25:08;;;;;;;2.10;1.23;;;20.20;50.90;;;;;;4976760;28;20579;-67
2023/06/03 11:27:36;;;;;;;2.23;1.30;;;20.20;51.00;;;;;;4983675;28;20550;-67
2023/06/03 11:30:07;;;;;;;1.23;1.13;;;20.20;57.20;;;;;;4982109;28;20568;-65
2023/06/03 11:32:36;;;;;;;1.30;1.20;;;20.40;55.80;;;;;;4974447;28;20530;-65
2023/06/03 11:35:27;;;;;;;1.97;1.33;;;20.50;53.30;;;;;;4987166;28;21330;-65
2023/06/03 11:37:55;;;;;;;1.13;1.03;;;20.60;57.40;;;;;;4980012;28;20475;-64
2023/06/03 11:40:24;;;;;;;2.40;1.77;;;20.80;52.50;;;;;;4979963;28;20477;-65
2023/06/03 11:43:12;;;;;;;2.50;1.67;;;20.90;59.00;;;;;;4991769;28;20592;-65
2023/06/03 11:45:45;;;;;;;2.10;1.20;;;21.10;54.80;;;;;;4990044;28;21188;-65
2023/06/03 11:48:15;;;;;;;2.80;1.67;;;21.10;51.30;;;;;;4995701;28;20892;-64
2023/06/03 11:50:48;;;;;;;1.20;1.10;;;21.20;55.90;;;;;;4993422;28;21323;-65
2023/06/03 11:53:33;;;;;;;1.97;1.00;;;21.40;48.60;;;;;;4989924;28;20576;-66
2023/06/03 11:56:05;;;;;;;1.90;1.20;;;21.40;54.00;;;;;;4996089;28;20500;-65
2023/06/03 11:58:35;;;;;;;3.40;1.40;;;21.50;48.80;;;;;;4994420;28;20476;-65
2023/06/03 12:01:09;;;;;;;1.60;1.50;;;21.60;48.30;;;;;;4989204;28;20592;-67
2023/06/03 12:03:37;;;;;;;1.77;1.30;;;21.80;48.00;;;;;;4988440;28;20488;-65
2023/06/03 12:06:07;;;;;;;2.33;1.40;;;21.80;46.30;;;;;;4992890;28;20873;-65
2023/06/03 12:08:46;;;;;;;4.07;1.20;;;21.70;44.30;;;;;;4991174;28;20860;-65
2023/06/03 12:11:28;;;;;;;2.00;1.13;;;21.70;42.00;;;;;;4998072;28;20487;-66
2023/06/03 12:13:56;;;;;;;1.83;1.30;;;21.80;45.00;;;;;;4994217;28;20476;-65
2023/06/03 12:16:32;;;;;;;3.10;1.43;;;21.90;44.40;;;;;;4992093;28;20479;-65
2023/06/03 12:19:01;;;;;;;1.00;1.00;;;22.10;44.20;;;;;;4997526;28;20479;-65
2023/06/03 12:21:30;;;;;;;1.33;1.20;;;22.30;44.00;;;;;;4992745;28;21374;-65
2023/06/03 12:23:58;;;;;;;2.53;1.60;;;22.40;45.10;;;;;;4984959;28;20472;-65
2023/06/03 12:26:27;;;;;;;1.40;1.27;;;22.40;44.80;;;;;;4983587;28;20495;-65
2023/06/03 12:29:05;;;;;;;1.43;1.30;;;22.40;41.50;;;;;;4987823;28;22082;-66
2023/06/03 12:31:35;;;;;;;2.00;1.33;;;22.40;41.60;;;;;;4988920;28;20495;-67
2023/06/03 12:34:04;;;;;;;1.77;1.40;;;22.50;44.90;;;;;;4996368;28;20472;-65
2023/06/03 12:36:48;;;;;;;1.60;1.30;;;22.50;42.60;;;;;;4994162;28;20556;-66
2023/06/03 12:39:17;;;;;;;1.83;1.17;;;22.60;41.90;;;;;;4992389;28;20468;-65
2023/06/03 12:41:52;;;;;;;1.00;1.00;;;22.70;41.30;;;;;;5008865;28;20497;-65
2023/06/03 12:44:20;;;;;;;1.00;1.00;;;22.80;39.40;;;;;;5017072;28;20970;-65
2023/06/03 12:47:02;;;;;;;2.10;1.40;;;22.90;41.10;;;;;;4995105;28;20507;-66
2023/06/03 12:49:30;;;;;;;2.00;1.17;;;23.00;42.10;;;;;;4986255;28;21128;-65
2023/06/03 12:52:16;;;;;;;1.47;1.10;;;23.10;41.00;;;;;;4987321;28;20512;-65
2023/06/03 12:54:50;;;;;;;2.60;1.03;;;23.10;40.20;;;;;;4994823;28;21060;-66
2023/06/03 12:57:18;;;;;;;2.47;1.20;;;23.30;38.80;;;;;;4983238;28;20469;-69
2023/06/03 13:00:00;;;;;;;3.37;1.30;;;23.30;40.30;;;;;;4992210;28;20575;-65
2023/06/03 13:02:29;;;;;;;1.30;1.17;;;23.40;40.90;;;;;;4995001;28;20528;-65
2023/06/03 13:04:57;;;;;;;1.37;1.27;;;23.40;37.70;;;;;;4990736;28;20504;-65
2023/06/03 13:07:26;;;;;;;1.93;1.27;;;23.40;38.70;;;;;;4993599;28;20472;-65